Time;durP1;ratioP1;P1;durP2;ratioP2;P2;SDS_P1;SDS_P2;PMS_P1;PMS_P2;Temp;Humidity;BMP_temperature;BMP_pressure;BME280_temperature;BME280_humidity;BME280_pressure;Samples;Min_cycle;Max_cycle;Signal;HPM_P1;HPM_P2
2023/08/19 00:00:08;;;;;;;0.87;0.87;;;;;;;25.35;64.54;99478.00;5050134;28;20200;-66
2023/08/19 00:02:35;;;;;;;0.60;0.60;;;;;;;25.36;64.85;99484.94;5050831;28;20204;-66
2023/08/19 00:05:03;;;;;;;0.77;0.77;;;;;;;25.35;64.95;99478.00;5050033;28;20196;-66
2023/08/19 00:07:30;;;;;;;0.97;0.83;;;;;;;25.33;64.86;99474.72;5050463;28;20201;-66
2023/08/19 00:09:58;;;;;;;1.03;0.80;;;;;;;25.35;64.96;99483.25;5050133;28;20288;-66
2023/08/19 00:12:24;;;;;;;0.80;0.63;;;;;;;25.33;64.67;99486.00;5050284;28;20207;-66
2023/08/19 00:14:51;;;;;;;1.23;0.80;;;;;;;25.31;65.29;99484.50;5050305;28;20216;-66
2023/08/19 00:17:18;;;;;;;1.00;1.00;;;;;;;25.27;65.88;99485.72;5050179;28;20211;-66
2023/08/19 00:19:45;;;;;;;0.80;0.80;;;;;;;25.23;65.57;99485.19;5050799;28;20193;-66
2023/08/19 00:22:13;;;;;;;0.80;0.80;;;;;;;25.25;65.21;99487.66;5049709;28;22916;-66
2023/08/19 00:24:40;;;;;;;0.90;0.90;;;;;;;25.21;65.53;99481.03;5049891;28;20203;-66
2023/08/19 00:27:08;;;;;;;0.90;0.90;;;;;;;25.13;66.09;99478.28;5049673;28;20232;-66
2023/08/19 00:29:35;;;;;;;2.73;1.20;;;;;;;25.07;66.44;99480.47;5050227;28;20200;-66
2023/08/19 00:32:02;;;;;;;0.73;0.60;;;;;;;25.11;66.31;99483.63;5050281;28;20200;-65
2023/08/19 00:34:29;;;;;;;1.53;1.13;;;;;;;25.11;66.12;99474.94;5049745;28;20274;-66
2023/08/19 00:36:56;;;;;;;1.37;1.03;;;;;;;24.98;66.23;99464.69;5050173;28;20201;-66
2023/08/19 00:39:23;;;;;;;0.70;0.70;;;;;;;25.02;67.32;99471.34;5049618;28;20252;-66
2023/08/19 00:41:53;;;;;;;0.70;0.70;;;;;;;24.98;66.96;99476.03;5049279;28;20196;-66
2023/08/19 00:44:21;;;;;;;0.60;0.60;;;;;;;24.94;67.19;99479.88;5049783;28;20204;-66
2023/08/19 00:46:48;;;;;;;0.93;0.93;;;;;;;24.94;67.15;99479.06;5053521;28;20691;-66
2023/08/19 00:49:15;;;;;;;0.50;0.50;;;;;;;24.92;66.81;99478.38;5052406;28;20201;-66
2023/08/19 00:51:42;;;;;;;0.50;0.50;;;;;;;24.92;66.34;99481.00;5053521;28;20197;-66
2023/08/19 00:54:08;;;;;;;0.80;0.80;;;;;;;24.90;66.88;99483.75;5053381;28;20274;-66
2023/08/19 00:56:35;;;;;;;0.70;0.70;;;;;;;24.87;66.67;99478.78;5053689;28;20258;-66
2023/08/19 00:59:02;;;;;;;2.37;1.43;;;;;;;24.89;66.90;99489.97;5053768;28;20270;-66
2023/08/19 01:01:30;;;;;;;1.90;1.07;;;;;;;24.88;67.42;99487.50;5053470;28;20742;-66
2023/08/19 01:03:57;;;;;;;0.67;0.67;;;;;;;24.86;67.63;99492.84;5053593;28;20197;-66
2023/08/19 01:06:27;;;;;;;2.27;0.70;;;;;;;24.83;67.28;99487.03;5053305;28;20197;-66
2023/08/19 01:09:03;;;;;;;0.80;0.80;;;;;;;24.73;67.00;99488.78;5053835;28;20288;-66
2023/08/19 01:11:46;;;;;;;0.80;0.80;;;;;;;24.61;67.41;99472.31;5052828;28;20631;-66
2023/08/19 01:14:29;;;;;;;1.33;1.30;;;;;;;24.47;68.14;99470.06;5053112;28;20665;-66
2023/08/19 01:16:58;;;;;;;0.83;0.83;;;;;;;24.37;68.63;99470.03;5051438;28;20197;-66
2023/08/19 01:19:29;;;;;;;0.83;0.83;;;;;;;24.25;68.61;99460.59;5053127;28;20270;-66
2023/08/19 01:22:00;;;;;;;1.47;0.93;;;;;;;24.16;68.81;99461.38;5051444;28;20573;-66
2023/08/19 01:24:34;;;;;;;0.67;0.67;;;;;;;24.13;69.45;99468.69;5052996;28;20200;-66
2023/08/19 01:27:03;;;;;;;0.70;0.60;;;;;;;24.03;69.81;99472.03;5053414;28;20197;-66
2023/08/19 01:29:29;;;;;;;0.93;0.93;;;;;;;23.93;70.25;99481.63;5051680;28;20204;-66
2023/08/19 01:31:56;;;;;;;0.97;0.97;;;;;;;23.77;70.46;99480.41;5053124;28;20204;-66
2023/08/19 01:34:25;;;;;;;1.30;1.30;;;;;;;23.73;70.77;99473.75;5052976;28;20286;-67
2023/08/19 01:37:02;;;;;;;0.70;0.70;;;;;;;23.68;71.74;99470.72;5052384;28;20200;-66
2023/08/19 01:39:30;;;;;;;5.43;0.80;;;;;;;23.57;71.78;99463.75;5052669;28;20204;-66
2023/08/19 01:41:58;;;;;;;0.70;0.70;;;;;;;23.60;71.35;99468.72;5053055;28;20259;-66
2023/08/19 01:44:26;;;;;;;1.33;0.90;;;;;;;23.57;71.87;99474.22;5052605;28;20192;-66
2023/08/19 01:46:52;;;;;;;0.63;0.63;;;;;;;23.57;72.36;99479.44;5052877;28;20251;-66
2023/08/19 01:49:19;;;;;;;1.00;0.80;;;;;;;23.56;71.92;99464.69;5052811;28;20205;-66
2023/08/19 01:51:46;;;;;;;1.00;1.00;;;;;;;23.52;72.04;99465.91;5052809;28;20677;-66
2023/08/19 01:54:12;;;;;;;1.07;1.07;;;;;;;23.45;72.08;99451.69;5052403;28;20277;-66
2023/08/19 01:56:39;;;;;;;0.60;0.60;;;;;;;23.40;71.55;99456.44;5051591;28;20657;-66
2023/08/19 01:59:07;;;;;;;1.00;1.00;;;;;;;23.39;71.37;99447.72;5052277;28;20204;-66
2023/08/19 02:01:34;;;;;;;0.80;0.80;;;;;;;23.40;71.61;99438.13;5052913;28;20618;-66
2023/08/19 02:04:01;;;;;;;0.60;0.60;;;;;;;23.33;71.56;99436.94;5052276;28;20193;-66
2023/08/19 02:06:29;;;;;;;1.00;1.00;;;;;;;23.28;71.49;99439.94;5052733;28;20200;-66
2023/08/19 02:08:55;;;;;;;0.97;0.97;;;;;;;23.28;71.18;99444.34;5052393;28;20199;-66
2023/08/19 02:11:22;;;;;;;0.70;0.70;;;;;;;23.32;71.18;99454.44;5052302;28;21020;-66
2023/08/19 02:13:49;;;;;;;0.83;0.83;;;;;;;23.29;71.33;99459.91;5052179;28;20295;-66
2023/08/19 02:16:17;;;;;;;1.07;0.87;;;;;;;23.25;71.84;99460.28;5052045;28;20342;-66
2023/08/19 02:18:43;;;;;;;0.90;0.90;;;;;;;23.24;72.04;99450.75;5052388;28;20227;-66
2023/08/19 02:21:10;;;;;;;0.77;0.63;;;;;;;23.21;72.30;99451.00;5052167;28;20193;-66
2023/08/19 02:23:37;;;;;;;0.60;0.60;;;;;;;23.23;71.95;99454.34;5052212;28;20278;-66
2023/08/19 02:26:04;;;;;;;1.23;1.10;;;;;;;23.25;72.51;99458.50;5051923;28;20227;-66
2023/08/19 02:28:30;;;;;;;1.07;1.07;;;;;;;23.26;72.77;99461.94;5052175;28;20292;-66
2023/08/19 02:31:02;;;;;;;0.87;0.87;;;;;;;23.25;72.25;99468.13;5052224;28;20254;-66
2023/08/19 02:33:30;;;;;;;0.83;0.83;;;;;;;23.22;72.67;99457.91;5052050;28;20656;-66
2023/08/19 02:35:57;;;;;;;0.80;0.80;;;;;;;23.24;72.75;99471.69;5052097;28;20622;-65
2023/08/19 02:38:24;;;;;;;0.87;0.87;;;;;;;23.25;72.13;99468.13;5051747;28;20254;-66
2023/08/19 02:40:51;;;;;;;3.33;0.90;;;;;;;23.18;72.32;99462.56;5052034;28;20247;-66
2023/08/19 02:43:18;;;;;;;0.67;0.67;;;;;;;23.22;72.45;99474.44;5051417;28;20197;-66
2023/08/19 02:45:45;;;;;;;0.90;0.90;;;;;;;23.21;72.85;99471.94;5051907;28;20742;-66
2023/08/19 02:48:12;;;;;;;2.20;0.83;;;;;;;23.21;72.62;99464.09;5051328;28;20208;-66
2023/08/19 02:50:40;;;;;;;0.70;0.70;;;;;;;23.22;72.99;99468.38;5051535;28;20639;-66
2023/08/19 02:53:06;;;;;;;0.80;0.80;;;;;;;23.20;73.51;99475.53;5051146;28;20251;-66
2023/08/19 02:55:33;;;;;;;1.47;1.20;;;;;;;23.17;73.11;99478.38;5051262;28;20216;-66
2023/08/19 02:58:00;;;;;;;0.80;0.80;;;;;;;23.09;73.63;99472.94;5052030;28;20197;-67
2023/08/19 03:00:28;;;;;;;0.80;0.80;;;;;;;22.89;73.53;99472.75;5051364;28;20210;-66
2023/08/19 03:02:55;;;;;;;0.63;0.63;;;;;;;22.86;73.92;99473.00;5051678;28;20288;-66
2023/08/19 03:05:21;;;;;;;0.90;0.90;;;;;;;22.81;73.89;99458.63;5051169;28;20270;-65
2023/08/19 03:07:50;;;;;;;0.97;0.97;;;;;;;22.77;73.43;99455.44;5051721;28;20254;-66
2023/08/19 03:10:16;;;;;;;0.80;0.80;;;;;;;22.76;72.95;99448.53;5051481;28;20254;-66
2023/08/19 03:12:43;;;;;;;0.80;0.80;;;;;;;22.73;73.43;99461.84;5051322;28;20627;-66
2023/08/19 03:15:10;;;;;;;0.93;0.73;;;;;;;22.71;72.94;99461.16;5051093;28;20212;-66
2023/08/19 03:17:37;;;;;;;0.73;0.73;;;;;;;22.67;73.20;99467.56;5050838;28;20205;-66
2023/08/19 03:20:05;;;;;;;2.20;1.03;;;;;;;22.66;73.47;99465.88;5050927;28;20196;-66
2023/08/19 03:22:32;;;;;;;1.23;1.00;;;;;;;22.62;73.35;99467.03;5048755;28;20664;-66
2023/08/19 03:25:00;;;;;;;3.80;1.20;;;;;;;22.58;74.00;99460.41;5051226;28;20250;-66
2023/08/19 03:27:27;;;;;;;1.50;1.40;;;;;;;22.51;74.33;99461.84;5050564;28;20196;-66
2023/08/19 03:29:54;;;;;;;1.97;1.87;;;;;;;22.45;75.30;99468.38;5048937;28;20204;-66
2023/08/19 03:32:20;;;;;;;1.80;1.70;;;;;;;22.44;76.35;99463.25;5051100;28;20265;-66
2023/08/19 03:34:47;;;;;;;6.53;2.10;;;;;;;22.28;78.50;99455.78;5050878;28;20216;-66
2023/08/19 03:37:14;;;;;;;10.83;2.33;;;;;;;22.33;78.25;99463.25;5050887;28;20668;-66
2023/08/19 03:39:40;;;;;;;3.23;2.87;;;;;;;22.34;78.74;99470.16;5050834;28;20196;-65
2023/08/19 03:42:08;;;;;;;3.70;2.70;;;;;;;22.28;79.75;99476.69;5050835;28;20631;-66
2023/08/19 03:44:35;;;;;;;6.77;3.57;;;;;;;22.30;80.01;99476.53;5050720;28;20197;-65
2023/08/19 03:47:02;;;;;;;5.43;2.53;;;;;;;22.30;80.43;99473.94;5050643;28;20254;-66
2023/08/19 03:49:29;;;;;;;4.43;3.10;;;;;;;22.30;81.07;99487.84;5050164;28;20200;-66
2023/08/19 03:51:55;;;;;;;4.63;2.87;;;;;;;22.30;81.16;99494.84;5047039;28;20204;-66
2023/08/19 03:54:22;;;;;;;7.83;3.70;;;;;;;22.29;81.07;99498.41;5049570;28;20278;-66
2023/08/19 03:56:49;;;;;;;8.43;3.77;;;;;;;22.23;81.16;99509.34;5050346;28;20562;-65
2023/08/19 03:59:17;;;;;;;9.93;4.20;;;;;;;21.98;81.26;99469.41;5050505;28;20258;-66
2023/08/19 04:01:44;;;;;;;5.10;3.27;;;;;;;22.10;81.72;99483.28;5050561;28;20203;-66
2023/08/19 04:04:10;;;;;;;5.73;3.70;;;;;;;22.13;81.96;99493.53;5050241;28;20193;-66
2023/08/19 04:06:37;;;;;;;8.73;3.27;;;;;;;22.16;81.93;99498.53;5050832;28;20750;-66
2023/08/19 04:09:05;;;;;;;11.67;5.00;;;;;;;22.17;82.11;99494.09;5050231;28;20205;-65
2023/08/19 04:11:32;;;;;;;18.00;7.53;;;;;;;22.17;82.33;99499.34;5050759;28;20209;-66
2023/08/19 04:13:59;;;;;;;20.27;9.37;;;;;;;22.19;81.90;99492.22;5050194;28;20251;-66
2023/08/19 04:16:27;;;;;;;16.40;8.70;;;;;;;22.13;82.52;99492.69;5050104;28;20665;-66
2023/08/19 04:18:54;;;;;;;28.57;9.20;;;;;;;22.10;82.58;99482.50;5049624;28;20196;-65
2023/08/19 04:21:21;;;;;;;28.33;10.13;;;;;;;22.05;82.83;99480.22;5050363;28;20200;-66
2023/08/19 04:23:48;;;;;;;22.93;9.50;;;;;;;22.03;82.60;99474.28;5050316;28;20270;-66
2023/08/19 04:26:15;;;;;;;28.97;10.97;;;;;;;21.94;83.29;99478.41;5049696;28;20576;-66
2023/08/19 04:28:42;;;;;;;29.93;10.43;;;;;;;21.84;83.24;99466.16;5050299;28;20201;-66
2023/08/19 04:31:10;;;;;;;24.70;11.30;;;;;;;21.87;83.43;99471.94;5050810;28;20726;-66
2023/08/19 04:33:38;;;;;;;25.60;10.90;;;;;;;21.77;83.56;99460.56;5050428;28;20208;-66
2023/08/19 04:36:05;;;;;;;22.33;9.17;;;;;;;21.85;83.42;99468.63;5050421;28;20223;-65
2023/08/19 04:38:32;;;;;;;25.10;10.20;;;;;;;21.85;83.78;99462.56;5050470;28;20196;-66
2023/08/19 04:41:00;;;;;;;22.40;10.70;;;;;;;21.73;84.62;99456.50;5050510;28;20266;-66
2023/08/19 04:43:27;;;;;;;11.13;9.00;;;;;;;21.86;84.39;99475.53;5048784;28;20208;-66
2023/08/19 04:45:54;;;;;;;29.87;11.53;;;;;;;21.89;84.44;99475.31;5049437;28;20661;-66
2023/08/19 04:48:21;;;;;;;19.27;9.17;;;;;;;21.92;84.48;99480.31;5049456;28;20274;-66
2023/08/19 04:50:49;;;;;;;25.57;9.90;;;;;;;21.94;83.83;99483.63;5049866;28;20263;-66
2023/08/19 04:53:16;;;;;;;17.27;9.07;;;;;;;21.88;84.32;99484.06;5049599;28;20238;-65
2023/08/19 04:55:43;;;;;;;20.53;9.97;;;;;;;21.75;85.27;99493.75;5049847;28;20294;-66
2023/08/19 04:58:09;;;;;;;16.27;9.37;;;;;;;21.64;86.28;99496.34;5049360;28;20231;-65
2023/08/19 05:00:37;;;;;;;20.90;8.13;;;;;;;21.58;87.13;99507.25;5049796;28;20196;-66
2023/08/19 05:03:05;;;;;;;10.97;6.37;;;;;;;21.55;87.63;99512.66;5049380;28;20195;-66
2023/08/19 05:05:31;;;;;;;8.47;4.63;;;;;;;21.49;88.27;99518.31;5049151;28;20192;-66
2023/08/19 05:07:59;;;;;;;11.87;5.77;;;;;;;21.43;89.12;99513.56;5049741;28;20246;-63
2023/08/19 05:10:26;;;;;;;6.07;5.13;;;;;;;21.45;90.08;99527.34;5049235;28;20196;-67
2023/08/19 05:12:54;;;;;;;8.67;6.43;;;;;;;21.56;89.89;99535.19;5049818;28;20197;-67
2023/08/19 05:15:21;;;;;;;15.10;7.40;;;;;;;21.66;88.36;99520.53;5048410;28;20212;-67
2023/08/19 05:17:48;;;;;;;8.57;4.37;;;;;;;21.77;87.58;99522.38;5049610;28;20259;-67
2023/08/19 05:20:14;;;;;;;17.00;5.40;;;;;;;21.83;86.96;99530.56;5049577;28;20201;-67
2023/08/19 05:22:41;;;;;;;6.83;4.73;;;;;;;21.88;86.45;99531.03;5048436;28;20701;-67
2023/08/19 05:25:09;;;;;;;7.83;4.80;;;;;;;22.02;86.90;99531.81;5049257;28;20255;-67
2023/08/19 05:27:36;;;;;;;3.73;3.03;;;;;;;22.05;87.33;99521.16;5045606;28;20222;-67
2023/08/19 05:30:05;;;;;;;1.93;1.83;;;;;;;22.28;83.78;99533.31;5047111;28;20616;-68
2023/08/19 05:32:32;;;;;;;2.87;2.47;;;;;;;22.32;83.90;99529.53;5050973;28;20197;-67
2023/08/19 05:34:58;;;;;;;2.40;2.20;;;;;;;22.41;84.85;99528.81;5052265;28;20220;-68
2023/08/19 05:37:26;;;;;;;2.93;2.23;;;;;;;22.52;84.87;99534.03;5052054;28;20208;-68
2023/08/19 05:39:53;;;;;;;2.73;2.10;;;;;;;22.71;85.06;99531.72;5049595;28;20204;-68
2023/08/19 05:42:21;;;;;;;4.00;2.00;;;;;;;22.96;83.60;99523.59;5052011;28;20213;-68
2023/08/19 05:44:47;;;;;;;4.00;1.70;;;;;;;23.27;81.65;99518.53;5051869;28;20205;-68
2023/08/19 05:47:15;;;;;;;3.50;1.60;;;;;;;23.59;80.63;99526.44;5051605;28;20573;-68
2023/08/19 05:49:41;;;;;;;2.23;2.10;;;;;;;23.90;80.05;99536.88;5052064;28;20597;-68
2023/08/19 05:52:08;;;;;;;1.53;1.43;;;;;;;24.21;81.42;99534.34;5050968;28;20672;-68
2023/08/19 05:54:35;;;;;;;6.30;1.70;;;;;;;24.53;78.93;99542.91;5051566;28;20197;-68
2023/08/19 05:57:01;;;;;;;1.47;1.37;;;;;;;24.82;74.13;99533.41;5051311;28;20200;-67
2023/08/19 05:59:30;;;;;;;2.63;1.57;;;;;;;25.06;76.93;99527.81;5052579;28;20209;-68
2023/08/19 06:01:56;;;;;;;19.40;3.23;;;;;;;25.32;86.63;99528.97;5052275;28;20200;-65
2023/08/19 06:04:23;;;;;;;4.23;2.10;;;;;;;25.42;75.62;99529.00;5051943;28;20597;-68
2023/08/19 06:06:50;;;;;;;2.63;2.00;;;;;;;25.55;73.22;99529.59;5051079;28;20262;-67
2023/08/19 06:09:16;;;;;;;3.80;1.83;;;;;;;25.61;72.00;99512.44;5052388;28;20214;-68
2023/08/19 06:11:51;;;;;;;7.83;2.43;;;;;;;25.85;77.93;99526.78;5050208;28;20578;-68
2023/08/19 06:14:18;;;;;;;3.90;2.27;;;;;;;25.85;71.19;99508.41;5048948;28;20203;-68
2023/08/19 06:16:47;;;;;;;8.80;2.20;;;;;;;26.04;73.29;99532.03;5050582;28;20216;-68
2023/08/19 06:19:14;;;;;;;1.43;1.33;;;;;;;26.14;70.08;99528.56;5049820;28;20205;-67
2023/08/19 06:21:41;;;;;;;3.67;1.63;;;;;;;26.33;72.50;99525.91;5051502;28;20703;-66
2023/08/19 06:24:08;;;;;;;1.43;1.33;;;;;;;26.57;66.43;99521.81;5051937;28;20224;-68
2023/08/19 06:26:35;;;;;;;1.50;1.37;;;;;;;26.63;66.51;99520.41;5051725;28;20197;-68
2023/08/19 06:29:02;;;;;;;1.97;1.73;;;;;;;26.72;66.02;99519.53;5051331;28;20278;-67
2023/08/19 06:31:29;;;;;;;1.60;1.50;;;;;;;26.88;70.18;99518.94;5047968;28;20287;-67
2023/08/19 06:33:58;;;;;;;1.53;1.27;;;;;;;27.01;72.39;99514.16;5051170;28;20223;-68
2023/08/19 06:36:28;;;;;;;1.40;1.30;;;;;;;27.00;71.80;99492.28;5052300;28;20688;-68
2023/08/19 06:39:05;;;;;;;1.20;1.20;;;;;;;27.01;64.67;99509.69;5051202;28;20208;-67
2023/08/19 06:41:35;;;;;;;1.30;1.23;;;;;;;26.99;69.44;99498.50;5049963;28;20211;-66
2023/08/19 06:44:04;;;;;;;1.63;1.23;;;;;;;27.11;66.88;99489.41;5050873;28;20193;-67
2023/08/19 06:46:32;;;;;;;1.20;1.10;;;;;;;27.27;65.80;99487.94;5051742;28;20542;-67
2023/08/19 06:49:01;;;;;;;5.27;1.47;;;;;;;27.64;66.65;99493.91;5050749;28;20196;-67
2023/08/19 06:51:29;;;;;;;1.27;1.17;;;;;;;27.86;61.73;99496.03;5049722;28;20204;-66
2023/08/19 06:53:56;;;;;;;1.65;1.52;;;;;;;28.19;61.88;99506.84;5049009;28;20455;-66
2023/08/19 06:56:27;;;;;;;1.73;1.63;;;;;;;28.55;61.80;99498.63;5050979;28;20840;-66
2023/08/19 06:59:02;;;;;;;1.83;1.73;;;;;;;28.92;61.65;99500.94;5051498;28;20258;-66
2023/08/19 07:01:31;;;;;;;2.40;1.30;;;;;;;29.21;56.89;99497.06;5052152;28;20200;-66
2023/08/19 07:04:01;;;;;;;2.53;1.52;;;;;;;29.46;57.30;99507.53;5052188;28;20270;-66
2023/08/19 07:06:31;;;;;;;1.75;1.65;;;;;;;29.72;56.21;99509.19;5051375;28;20693;-66
2023/08/19 07:08:58;;;;;;;1.65;1.60;;;;;;;29.86;56.39;99514.66;5049096;28;20199;-66
2023/08/19 07:11:26;;;;;;;2.80;1.95;;;;;;;29.74;53.81;99515.94;5051348;28;20673;-66
2023/08/19 07:13:53;;;;;;;1.58;1.48;;;;;;;29.42;54.96;99502.72;5050289;28;20208;-66
2023/08/19 07:16:23;;;;;;;2.35;2.25;;;;;;;29.32;54.31;99507.34;5050771;28;20229;-66
2023/08/19 07:18:53;;;;;;;5.13;1.52;;;;;;;29.23;57.43;99511.75;5050840;28;20235;-66
2023/08/19 07:21:23;;;;;;;1.50;1.40;;;;;;;29.25;56.02;99519.53;5051607;28;20196;-67
2023/08/19 07:23:55;;;;;;;1.43;1.33;;;;;;;29.23;55.84;99511.75;5051997;28;20228;-66
2023/08/19 07:26:25;;;;;;;1.73;1.30;;;;;;;29.33;57.20;99503.72;5051882;28;20189;-66
2023/08/19 07:28:53;;;;;;;1.50;1.40;;;;;;;29.40;57.92;99510.00;5051520;28;20197;-66
2023/08/19 07:31:21;;;;;;;1.00;1.00;;;;;;;29.41;56.64;99514.28;5051985;28;20197;-66
2023/08/19 07:33:48;;;;;;;1.33;1.30;;;;;;;29.46;56.20;99517.25;5051687;28;20193;-67
2023/08/19 07:36:15;;;;;;;1.48;1.42;;;;;;;29.46;55.78;99514.63;5050341;28;20284;-66
2023/08/19 07:38:43;;;;;;;1.20;1.10;;;;;;;29.62;57.25;99509.34;5051562;28;20201;-66
2023/08/19 07:41:10;;;;;;;1.20;1.10;;;;;;;29.83;54.78;99517.63;5051557;28;20192;-66
2023/08/19 07:43:36;;;;;;;1.02;1.00;;;;;;;30.03;53.92;99512.81;5051646;28;20562;-66
2023/08/19 07:46:03;;;;;;;1.25;1.23;;;;;;;30.34;56.03;99515.59;5051485;28;20849;-66
2023/08/19 07:48:31;;;;;;;1.73;0.93;;;;;;;30.38;53.42;99517.69;5051578;28;20227;-66
2023/08/19 07:50:58;;;;;;;0.98;0.98;;;;;;;30.49;53.69;99521.84;5051053;28;20570;-66
2023/08/19 07:53:25;;;;;;;1.38;1.27;;;;;;;30.52;50.16;99522.34;5050878;28;20201;-66
2023/08/19 07:55:53;;;;;;;0.98;0.88;;;;;;;30.39;50.12;99527.31;5050858;28;20270;-66
2023/08/19 07:58:20;;;;;;;0.73;0.73;;;;;;;30.40;50.75;99522.88;5051321;28;20205;-66
2023/08/19 08:00:47;;;;;;;1.27;1.17;;;;;;;30.36;51.22;99518.88;5051551;28;20205;-66
2023/08/19 08:03:14;;;;;;;0.77;0.77;;;;;;;30.31;49.59;99529.16;5051121;28;20584;-66
2023/08/19 08:05:41;;;;;;;0.90;0.90;;;;;;;30.24;49.44;99521.06;5051504;28;20628;-66
2023/08/19 08:08:08;;;;;;;0.75;0.75;;;;;;;30.25;49.88;99521.88;5051131;28;20204;-66
2023/08/19 08:10:34;;;;;;;0.95;0.85;;;;;;;30.28;50.34;99522.34;5051104;28;20252;-66
2023/08/19 08:13:03;;;;;;;0.85;0.75;;;;;;;30.16;48.76;99524.53;5050649;28;20193;-66
2023/08/19 08:15:30;;;;;;;0.63;0.63;;;;;;;30.04;48.01;99520.59;5050976;28;20235;-66
2023/08/19 08:17:57;;;;;;;0.50;0.50;;;;;;;30.00;53.06;99516.63;5051031;28;20228;-66
2023/08/19 08:20:24;;;;;;;4.33;0.67;;;;;;;29.95;49.66;99518.13;5050614;28;20197;-67
2023/08/19 08:22:50;;;;;;;0.77;0.65;;;;;;;29.96;49.03;99512.66;5050881;28;20286;-66
2023/08/19 08:25:17;;;;;;;0.57;0.57;;;;;;;30.00;50.94;99514.00;5050546;28;20201;-66
2023/08/19 08:27:45;;;;;;;0.80;0.80;;;;;;;30.01;51.13;99515.66;5051078;28;20254;-66
2023/08/19 08:30:13;;;;;;;0.60;0.60;;;;;;;29.99;49.88;99514.97;5050669;28;20200;-66
2023/08/19 08:32:40;;;;;;;0.60;0.60;;;;;;;29.99;49.54;99516.78;5050662;28;20204;-66
2023/08/19 08:35:08;;;;;;;0.60;0.60;;;;;;;29.95;51.48;99520.78;5050588;28;20262;-66
2023/08/19 08:37:34;;;;;;;1.00;0.80;;;;;;;29.89;49.57;99509.03;5046843;28;20770;-66
2023/08/19 08:40:01;;;;;;;0.75;0.75;;;;;;;29.96;47.81;99523.25;5049597;28;20627;-66
2023/08/19 08:42:28;;;;;;;0.83;0.83;;;;;;;29.77;47.42;99512.97;5048542;28;20192;-66
2023/08/19 08:44:56;;;;;;;1.50;0.70;;;;;;;29.70;47.98;99518.09;5049720;28;20262;-66
2023/08/19 08:47:26;;;;;;;0.50;0.50;;;;;;;29.70;47.80;99518.09;5050514;28;20197;-66
2023/08/19 08:49:54;;;;;;;0.60;0.60;;;;;;;29.73;49.70;99511.66;5050756;28;20196;-66
2023/08/19 08:52:21;;;;;;;0.52;0.50;;;;;;;29.75;48.13;99512.31;5050383;28;20201;-66
2023/08/19 08:54:52;;;;;;;5.05;0.75;;;;;;;29.70;47.40;99517.25;5050518;28;20250;-66
2023/08/19 08:57:19;;;;;;;0.57;0.57;;;;;;;29.70;48.19;99517.25;5050408;28;20248;-66
2023/08/19 08:59:45;;;;;;;0.55;0.55;;;;;;;29.81;50.63;99502.91;5050504;28;20201;-66
2023/08/19 09:02:13;;;;;;;0.65;0.65;;;;;;;30.00;50.71;99502.56;5050245;28;20282;-66
2023/08/19 09:04:44;;;;;;;0.30;0.30;;;;;;;30.20;47.63;99503.88;5050399;28;20201;-66
2023/08/19 09:07:14;;;;;;;0.63;0.63;;;;;;;30.36;48.09;99497.72;5054255;28;20197;-66
2023/08/19 09:09:42;;;;;;;0.50;0.50;;;;;;;30.47;44.75;99492.09;5054335;28;20258;-66
2023/08/19 09:12:13;;;;;;;0.60;0.60;;;;;;;30.65;49.17;99498.81;5054389;28;20674;-66
2023/08/19 09:14:42;;;;;;;0.50;0.50;;;;;;;30.61;45.75;99484.25;5054139;28;20251;-66
2023/08/19 09:17:10;;;;;;;0.60;0.60;;;;;;;30.84;45.00;99492.25;5054168;28;20224;-66
2023/08/19 09:19:38;;;;;;;0.60;0.60;;;;;;;30.98;47.17;99488.91;5053874;28;20247;-66
2023/08/19 09:22:20;;;;;;;0.52;0.52;;;;;;;31.05;47.25;99468.66;5053725;28;20298;-66
2023/08/19 09:24:47;;;;;;;0.50;0.50;;;;;;;31.07;43.66;99479.91;5054065;28;21804;-67
2023/08/19 09:27:18;;;;;;;0.70;0.70;;;;;;;31.12;45.22;99480.19;5054169;28;20196;-67
2023/08/19 09:29:50;;;;;;;0.68;0.68;;;;;;;31.28;44.58;99479.25;5054160;28;20776;-66
2023/08/19 09:32:17;;;;;;;0.93;0.93;;;;;;;31.53;43.23;99482.59;5054046;28;20200;-66
2023/08/19 09:34:43;;;;;;;0.68;0.68;;;;;;;31.78;43.00;99480.56;5053713;28;20201;-66
2023/08/19 09:37:11;;;;;;;0.70;0.70;;;;;;;31.95;41.97;99482.06;5054022;28;20274;-67
2023/08/19 09:39:39;;;;;;;0.50;0.50;;;;;;;32.04;42.21;99481.81;5053625;28;20204;-67
2023/08/19 09:42:06;;;;;;;0.47;0.47;;;;;;;32.08;43.11;99480.47;5052332;28;20862;-65
2023/08/19 09:44:33;;;;;;;0.77;0.77;;;;;;;32.33;41.21;99474.88;5049248;28;20197;-67
2023/08/19 09:47:03;;;;;;;0.90;0.60;;;;;;;32.29;41.74;99462.97;5050011;28;20596;-67
2023/08/19 09:49:30;;;;;;;0.50;0.50;;;;;;;32.53;40.26;99478.63;5052119;28;20197;-67
2023/08/19 09:51:57;;;;;;;1.75;0.70;;;;;;;32.71;40.56;99466.63;5052730;28;20665;-67
2023/08/19 09:54:24;;;;;;;0.55;0.55;;;;;;;32.85;39.64;99472.09;5052904;28;20332;-68
2023/08/19 09:56:56;;;;;;;0.50;0.50;;;;;;;32.91;39.54;99469.53;5050608;28;20209;-67
2023/08/19 09:59:23;;;;;;;0.60;0.60;;;;;;;32.98;39.19;99459.78;5051543;28;20243;-68
2023/08/19 10:01:51;;;;;;;0.95;0.95;;;;;;;33.24;39.49;99460.09;5050602;28;20193;-66
2023/08/19 10:04:18;;;;;;;0.55;0.55;;;;;;;33.16;37.85;99456.72;5050558;28;20228;-67
2023/08/19 10:06:48;;;;;;;0.77;0.52;;;;;;;33.19;37.74;99461.66;5051426;28;20258;-67
2023/08/19 10:09:18;;;;;;;0.60;0.60;;;;;;;33.15;38.93;99463.88;5051557;28;20216;-68
2023/08/19 10:11:46;;;;;;;0.70;0.70;;;;;;;33.17;39.27;99459.22;5051436;28;20272;-68
2023/08/19 10:14:15;;;;;;;0.50;0.50;;;;;;;33.12;38.77;99466.09;5051430;28;20201;-67
2023/08/19 10:16:46;;;;;;;3.05;0.60;;;;;;;33.28;38.58;99462.38;5051594;28;20293;-67
2023/08/19 10:19:17;;;;;;;0.50;0.50;;;;;;;33.34;38.29;99475.72;5046388;28;20201;-67
2023/08/19 10:21:47;;;;;;;0.40;0.40;;;;;;;33.38;38.09;99469.00;5050423;28;20573;-67
2023/08/19 10:24:14;;;;;;;0.57;0.57;;;;;;;33.39;37.81;99472.47;5050721;28;20292;-67
2023/08/19 10:26:47;;;;;;;0.75;0.75;;;;;;;33.24;36.79;99467.25;5051000;28;20197;-68
2023/08/19 10:29:15;;;;;;;0.57;0.50;;;;;;;33.44;37.66;99470.91;5050988;28;20196;-67
2023/08/19 10:31:42;;;;;;;3.50;0.60;;;;;;;33.61;38.71;99471.47;5048147;28;20208;-68
2023/08/19 10:34:12;;;;;;;0.70;0.70;;;;;;;33.87;37.67;99470.84;5049600;28;20255;-66
2023/08/19 10:36:39;;;;;;;3.83;0.50;;;;;;;33.73;37.96;99446.03;5051123;28;20228;-68
2023/08/19 10:39:15;;;;;;;0.60;0.60;;;;;;;33.40;37.60;99464.31;5050522;28;20223;-67
2023/08/19 10:41:42;;;;;;;0.60;0.60;;;;;;;33.32;37.36;99459.13;5050535;28;20262;-67
2023/08/19 10:44:11;;;;;;;1.42;0.85;;;;;;;33.37;36.82;99458.56;5050932;28;20702;-66
2023/08/19 10:46:40;;;;;;;0.75;0.73;;;;;;;33.45;38.34;99461.91;5050780;28;20204;-67
2023/08/19 10:49:09;;;;;;;0.50;0.50;;;;;;;33.47;37.36;99459.91;5048535;28;20275;-68
2023/08/19 10:51:53;;;;;;;0.50;0.50;;;;;;;33.28;35.47;99445.41;5049909;28;20255;-67
2023/08/19 10:54:28;;;;;;;0.40;0.40;;;;;;;33.30;36.38;99452.38;5046552;28;20211;-67
2023/08/19 10:57:07;;;;;;;0.60;0.60;;;;;;;33.21;36.36;99455.16;5049029;28;20270;-68
2023/08/19 10:59:34;;;;;;;0.73;0.50;;;;;;;33.32;37.29;99458.28;5049389;28;20197;-68
2023/08/19 11:02:04;;;;;;;1.08;0.90;;;;;;;33.26;36.79;99447.44;5050853;28;20266;-68
2023/08/19 11:04:31;;;;;;;0.60;0.60;;;;;;;33.52;37.70;99449.50;5050256;28;20201;-67
2023/08/19 11:06:58;;;;;;;0.57;0.57;;;;;;;33.67;37.18;99444.94;5049214;28;20250;-68
2023/08/19 11:09:26;;;;;;;0.60;0.60;;;;;;;33.60;37.10;99443.22;5049405;28;20682;-67
2023/08/19 11:11:53;;;;;;;0.57;0.57;;;;;;;33.59;36.51;99444.25;5050900;28;20696;-68
2023/08/19 11:14:20;;;;;;;0.60;0.60;;;;;;;33.65;36.56;99435.50;5049696;28;20211;-68
2023/08/19 11:16:49;;;;;;;0.70;0.70;;;;;;;33.53;36.71;99442.34;5050141;28;20216;-67
2023/08/19 11:19:19;;;;;;;0.80;0.80;;;;;;;33.78;38.04;99439.09;5047982;28;20212;-67
2023/08/19 11:21:46;;;;;;;1.48;0.82;;;;;;;33.91;37.64;99441.03;5049375;28;20619;-67
2023/08/19 11:24:13;;;;;;;0.68;0.68;;;;;;;33.96;35.03;99440.44;5048256;28;20208;-67
2023/08/19 11:26:40;;;;;;;0.60;0.60;;;;;;;34.04;35.37;99433.13;5047453;28;20197;-67
2023/08/19 11:29:07;;;;;;;0.50;0.50;;;;;;;34.16;37.50;99431.59;5049184;28;20205;-68
2023/08/19 11:31:35;;;;;;;0.60;0.60;;;;;;;34.22;37.14;99428.13;5049834;28;20204;-66
2023/08/19 11:34:05;;;;;;;0.60;0.60;;;;;;;34.38;35.61;99426.97;5050164;28;20243;-67